createdAt,value
2023-02-04T00:02:05.890Z,103400.94
2023-02-04T00:04:32.374Z,103401.03
2023-02-04T00:06:58.895Z,103395.69
2023-02-04T00:09:25.430Z,103401.91
2023-02-04T00:11:51.910Z,103394.81
2023-02-04T00:14:18.422Z,103396.63
2023-02-04T00:16:44.950Z,103399.31
2023-02-04T00:19:11.476Z,103394.91
2023-02-04T00:21:38.045Z,103399.38
2023-02-04T00:24:04.611Z,103394.03
2023-02-04T00:26:31.120Z,103394.03
2023-02-04T00:28:57.655Z,103397.66
2023-02-04T00:31:24.533Z,103404.81
2023-02-04T00:33:51.113Z,103398.59
2023-02-04T00:36:17.734Z,103404.91
2023-02-04T00:38:44.414Z,103408.50
2023-02-04T00:41:11.769Z,103409.47
2023-02-04T00:43:38.251Z,103413.00
2023-02-04T00:46:05.003Z,103415.78
2023-02-04T00:48:31.516Z,103420.25
2023-02-04T00:50:58.030Z,103429.16
2023-02-04T00:53:24.580Z,103426.53
2023-02-04T00:55:51.112Z,103427.50
2023-02-04T00:58:17.621Z,103431.03
2023-02-04T01:00:44.154Z,103431.13
2023-02-04T01:03:10.741Z,103438.19
2023-02-04T01:05:37.324Z,103428.44
2023-02-04T01:08:04.001Z,103441.81
2023-02-04T01:10:31.098Z,103436.38
2023-02-04T01:12:57.884Z,103439.06
2023-02-04T01:15:24.423Z,103445.28
2023-02-04T01:17:50.918Z,103440.88
2023-02-04T01:20:17.710Z,103444.41
2023-02-04T01:22:44.211Z,103446.16
2023-02-04T01:25:10.754Z,103451.53
2023-02-04T01:27:37.237Z,103452.44
2023-02-04T01:30:06.154Z,103457.78
2023-02-04T01:32:32.645Z,103470.31
2023-02-04T01:34:59.198Z,103471.16
2023-02-04T01:37:25.794Z,103481.00
2023-02-04T01:39:52.386Z,103481.00
2023-02-04T01:42:19.093Z,103481.00
2023-02-04T01:44:46.179Z,103480.16
2023-02-04T01:47:12.816Z,103473.94
2023-02-04T01:49:39.643Z,103477.56
2023-02-04T01:52:06.262Z,103469.53
2023-02-04T01:54:32.793Z,103473.06
2023-02-04T01:56:59.321Z,103477.56
2023-02-04T01:59:26.896Z,103482.91
2023-02-04T02:01:54.612Z,103490.09
2023-02-04T02:04:29.166Z,103493.69
2023-02-04T02:06:59.004Z,103499.91
2023-02-04T02:09:27.114Z,103497.22
2023-02-04T02:11:53.776Z,103498.16
2023-02-04T02:14:20.674Z,103491.88
2023-02-04T02:16:47.292Z,103497.31
2023-02-04T02:19:19.966Z,103493.78
2023-02-04T02:22:03.553Z,103499.13
2023-02-04T02:24:32.914Z,103501.78
2023-02-04T02:27:08.399Z,103509.81
2023-02-04T02:29:35.971Z,103506.28
2023-02-04T02:32:02.611Z,103505.44
2023-02-04T02:34:30.268Z,103510.78
2023-02-04T02:36:59.370Z,103498.25
2023-02-04T02:39:26.581Z,103508.09
2023-02-04T02:41:53.902Z,103506.28
2023-02-04T02:44:20.890Z,103503.63
2023-02-04T02:46:47.432Z,103499.97
2023-02-04T02:49:16.950Z,103508.97
2023-02-04T02:51:44.350Z,103505.34
2023-02-04T02:54:24.300Z,103515.09
2023-02-04T02:56:51.703Z,103523.06
2023-02-04T02:59:18.652Z,103514.16
2023-02-04T03:01:48.697Z,103521.25
2023-02-04T03:04:15.634Z,103523.94
2023-02-04T03:06:42.195Z,103523.94
2023-02-04T03:09:08.738Z,103522.97
2023-02-04T03:11:35.298Z,103518.47
2023-02-04T03:14:02.910Z,103520.22
2023-02-04T03:16:32.939Z,103515.81
2023-02-04T03:19:04.976Z,103519.34
2023-02-04T03:21:31.702Z,103515.75
2023-02-04T03:23:58.407Z,103520.16
2023-02-04T03:26:25.985Z,103518.44
2023-02-04T03:28:55.457Z,103520.22
2023-02-04T03:31:22.161Z,103519.34
2023-02-04T03:33:48.800Z,103512.28
2023-02-04T03:36:15.291Z,103521.25
2023-02-04T03:38:41.931Z,103520.38
2023-02-04T03:41:08.633Z,103523.13
2023-02-04T03:43:35.188Z,103519.53
2023-02-04T03:46:01.909Z,103518.63
2023-02-04T03:48:28.430Z,103512.50
2023-02-04T03:50:54.907Z,103523.22
2023-02-04T03:53:22.139Z,103520.63
2023-02-04T03:55:48.641Z,103526.88
2023-02-04T03:58:15.285Z,103522.41
2023-02-04T04:00:41.941Z,103520.69
2023-02-04T04:03:08.734Z,103526.88
2023-02-04T04:05:35.511Z,103521.63
2023-02-04T04:08:02.179Z,103518.94
2023-02-04T04:10:32.156Z,103520.75
2023-02-04T04:12:58.850Z,103527.94
2023-02-04T04:15:25.494Z,103532.41
2023-02-04T04:17:52.010Z,103531.47
2023-02-04T04:20:18.741Z,103540.44
2023-02-04T04:22:46.003Z,103544.03
2023-02-04T04:25:12.634Z,103545.81
2023-02-04T04:27:39.185Z,103542.22
2023-02-04T04:30:06.070Z,103538.69
2023-02-04T04:32:32.628Z,103543.19
2023-02-04T04:34:59.140Z,103537.78
2023-02-04T04:37:25.619Z,103535.16
2023-02-04T04:39:52.128Z,103536.00
2023-02-04T04:42:18.636Z,103539.63
2023-02-04T04:44:45.157Z,103547.66
2023-02-04T04:47:11.654Z,103545.00
2023-02-04T04:49:38.216Z,103552.16
2023-02-04T04:52:04.979Z,103549.47
2023-02-04T04:54:31.492Z,103545.00
2023-02-04T04:56:57.998Z,103544.03
2023-02-04T04:59:24.715Z,103551.22
2023-02-04T05:01:51.186Z,103544.13
2023-02-04T05:04:17.675Z,103554.75
2023-02-04T05:06:45.079Z,103547.56
2023-02-04T05:09:11.608Z,103552.94
2023-02-04T05:11:38.121Z,103546.72
2023-02-04T05:14:05.183Z,103553.81
2023-02-04T05:16:31.779Z,103554.69
2023-02-04T05:18:58.324Z,103550.19
2023-02-04T05:21:24.895Z,103555.56
2023-02-04T05:23:51.399Z,103558.28
2023-02-04T05:26:29.457Z,103566.25
2023-02-04T05:28:56.934Z,103568.94
2023-02-04T05:31:23.575Z,103562.63
2023-02-04T05:33:50.157Z,103570.75
2023-02-04T05:36:17.780Z,103578.78
2023-02-04T05:38:44.311Z,103585.03
2023-02-04T05:41:10.793Z,103585.94
2023-02-04T05:43:37.302Z,103586.84
2023-02-04T05:46:04.294Z,103587.81
2023-02-04T05:48:30.929Z,103586.94
2023-02-04T05:50:57.476Z,103590.47
2023-02-04T05:53:26.043Z,103597.66
2023-02-04T05:55:52.796Z,103587.91
2023-02-04T05:58:19.331Z,103596.78
2023-02-04T06:00:45.949Z,103595.91
2023-02-04T06:03:14.439Z,103596.78
2023-02-04T06:05:41.377Z,103595.06
2023-02-04T06:08:07.946Z,103593.31
2023-02-04T06:10:34.561Z,103590.63
2023-02-04T06:13:01.180Z,103593.31
2023-02-04T06:15:27.656Z,103605.81
2023-02-04T06:17:54.250Z,103605.81
2023-02-04T06:20:20.797Z,103612.97
2023-02-04T06:22:47.650Z,103613.94
2023-02-04T06:25:14.267Z,103627.31
2023-02-04T06:27:40.852Z,103626.44
2023-02-04T06:30:07.958Z,103635.34
2023-02-04T06:32:34.457Z,103631.78
2023-02-04T06:35:00.998Z,103641.53
2023-02-04T06:37:27.528Z,103647.84
2023-02-04T06:39:54.783Z,103644.31
2023-02-04T06:42:21.395Z,103646.97
2023-02-04T06:44:47.906Z,103641.63
2023-02-04T06:47:14.437Z,103646.09
2023-02-04T06:49:40.933Z,103651.44
2023-02-04T06:52:07.426Z,103650.56
2023-02-04T06:54:34.315Z,103659.47
2023-02-04T06:57:06.572Z,103661.28
2023-02-04T06:59:41.358Z,103663.94
2023-02-04T07:02:08.098Z,103659.56
2023-02-04T07:04:35.355Z,103658.56
2023-02-04T07:07:01.945Z,103661.28
2023-02-04T07:09:28.499Z,103661.28
2023-02-04T07:11:55.027Z,103675.53
2023-02-04T07:14:21.650Z,103680.88
2023-02-04T07:16:48.190Z,103669.31
2023-02-04T07:19:15.012Z,103667.50
2023-02-04T07:21:41.580Z,103674.66
2023-02-04T07:24:08.078Z,103679.16
2023-02-04T07:26:34.583Z,103679.16
2023-02-04T07:29:01.157Z,103687.13
2023-02-04T07:31:27.808Z,103682.69
2023-02-04T07:33:54.379Z,103688.97
2023-02-04T07:36:21.016Z,103695.19
2023-02-04T07:38:47.575Z,103693.38
2023-02-04T07:41:14.162Z,103693.38
2023-02-04T07:43:40.896Z,103697.88
2023-02-04T07:46:07.445Z,103708.53
2023-02-04T07:48:34.018Z,103712.97
2023-02-04T07:51:00.595Z,103704.94
2023-02-04T07:53:27.098Z,103712.06
2023-02-04T07:55:53.908Z,103716.56
2023-02-04T07:58:20.397Z,103709.38
2023-02-04T08:00:46.959Z,103710.25
2023-02-04T08:03:13.735Z,103720.00
2023-02-04T08:05:40.300Z,103720.97
2023-02-04T08:08:06.863Z,103722.69
2023-02-04T08:10:33.812Z,103727.09
2023-02-04T08:13:00.706Z,103724.41
2023-02-04T08:15:27.218Z,103731.53
2023-02-04T08:17:53.677Z,103733.31
2023-02-04T08:20:20.285Z,103732.38
2023-02-04T08:22:46.827Z,103734.13
2023-02-04T08:25:13.354Z,103748.34
2023-02-04T08:27:40.018Z,103751.91
2023-02-04T08:30:07.305Z,103748.28
2023-02-04T08:32:33.835Z,103750.09
2023-02-04T08:35:00.962Z,103758.13
2023-02-04T08:37:28.027Z,103759.88
2023-02-04T08:39:54.635Z,103762.56
2023-02-04T08:42:21.126Z,103764.28
2023-02-04T08:44:47.651Z,103766.88
2023-02-04T08:47:14.390Z,103758.81
2023-02-04T08:49:40.894Z,103764.16
2023-02-04T08:52:07.966Z,103769.41
2023-02-04T08:54:35.215Z,103767.59
2023-02-04T08:57:02.389Z,103765.75
2023-02-04T08:59:29.226Z,103770.06
2023-02-04T09:01:55.718Z,103773.56
2023-02-04T09:04:23.828Z,103773.44
2023-02-04T09:06:50.963Z,103778.69
2023-02-04T09:09:17.932Z,103783.06
2023-02-04T09:11:44.508Z,103771.31
2023-02-04T09:14:11.466Z,103781.06
2023-02-04T09:16:37.967Z,103780.16
2023-02-04T09:19:04.741Z,103781.81
2023-02-04T09:21:31.760Z,103784.47
2023-02-04T09:23:58.273Z,103791.50
2023-02-04T09:26:24.830Z,103790.66
2023-02-04T09:28:51.512Z,103795.91
2023-02-04T09:31:18.875Z,103787.88
2023-02-04T09:33:45.501Z,103785.16
2023-02-04T09:36:12.040Z,103785.06
2023-02-04T09:38:38.553Z,103785.94
2023-02-04T09:41:08.490Z,103785.00
2023-02-04T09:43:37.321Z,103792.97
2023-02-04T09:46:04.215Z,103793.75
2023-02-04T09:48:31.075Z,103791.81
2023-02-04T09:51:05.177Z,103796.94
2023-02-04T09:53:32.257Z,103804.81
2023-02-04T09:55:58.939Z,103800.22
2023-02-04T09:58:28.647Z,103804.59
2023-02-04T10:01:19.657Z,103813.41
2023-02-04T10:03:48.320Z,103817.75
2023-02-04T10:06:19.850Z,103811.38
2023-02-04T10:08:48.486Z,103816.59
2023-02-04T10:11:17.111Z,103818.25
2023-02-04T10:13:54.954Z,103821.81
2023-02-04T10:16:29.731Z,103823.53
2023-02-04T10:19:02.728Z,103822.59
2023-02-04T10:21:32.312Z,103828.75
2023-02-04T10:24:02.552Z,103825.97
2023-02-04T10:26:31.108Z,103826.78
2023-02-04T10:29:02.214Z,103832.94
2023-02-04T10:31:38.318Z,103826.66
2023-02-04T10:34:18.621Z,103832.88
2023-02-04T10:36:50.826Z,103824.75
2023-02-04T10:39:22.931Z,103831.06
2023-02-04T10:41:55.267Z,103830.19
2023-02-04T10:44:31.271Z,103814.13
2023-02-04T10:47:00.770Z,103831.94
2023-02-04T10:49:27.588Z,103827.44
2023-02-04T10:51:54.231Z,103822.06
2023-02-04T10:54:30.580Z,103831.06
2023-02-04T10:57:22.965Z,103831.94
2023-02-04T10:59:57.081Z,103833.66
2023-02-04T11:02:41.181Z,103829.16
2023-02-04T11:05:11.678Z,103833.66
2023-02-04T11:07:38.323Z,103829.03
2023-02-04T11:10:05.347Z,103826.44
2023-02-04T11:12:55.271Z,103819.16
2023-02-04T11:15:42.079Z,103825.34
2023-02-04T11:18:19.445Z,103818.06
2023-02-04T11:20:49.437Z,103823.28
2023-02-04T11:23:28.406Z,103816.03
2023-02-04T11:26:07.444Z,103820.47
2023-02-04T11:28:44.802Z,103821.25
2023-02-04T11:31:27.182Z,103817.56
2023-02-04T11:34:23.999Z,103817.47
2023-02-04T11:36:56.939Z,103820.09
2023-02-04T11:39:29.253Z,103819.16
2023-02-04T11:41:55.926Z,103811.88
2023-02-04T11:44:23.109Z,103810.88
2023-02-04T11:46:52.635Z,103815.38
2023-02-04T11:49:20.729Z,103814.41
2023-02-04T11:51:47.257Z,103813.41
2023-02-04T11:54:18.899Z,103816.09
2023-02-04T11:56:46.658Z,103806.22
2023-02-04T11:59:14.462Z,103810.56
2023-02-04T12:01:41.844Z,103800.72
2023-02-04T12:04:22.691Z,103815.00
2023-02-04T12:07:01.271Z,103814.03
2023-02-04T12:09:29.962Z,103817.53
2023-02-04T12:12:02.058Z,103819.25
2023-02-04T12:14:34.074Z,103828.16
2023-02-04T12:17:00.675Z,103820.03
2023-02-04T12:19:28.203Z,103824.47
2023-02-04T12:21:56.027Z,103819.09
2023-02-04T12:24:22.564Z,103820.84
2023-02-04T12:26:49.113Z,103830.59
2023-02-04T12:29:15.764Z,103820.75
2023-02-04T12:31:42.474Z,103822.47
2023-02-04T12:34:09.092Z,103819.78
2023-02-04T12:36:35.644Z,103825.09
2023-02-04T12:39:03.113Z,103833.13
2023-02-04T12:41:29.986Z,103826.81
2023-02-04T12:43:56.537Z,103824.94
2023-02-04T12:46:23.400Z,103817.75
2023-02-04T12:48:50.175Z,103822.19
2023-02-04T12:51:16.720Z,103821.22
2023-02-04T12:53:43.214Z,103818.53
2023-02-04T12:56:09.744Z,103814.03
2023-02-04T12:58:36.246Z,103825.63
2023-02-04T13:01:04.415Z,103819.41
2023-02-04T13:03:31.913Z,103822.94
2023-02-04T13:05:59.056Z,103818.47
2023-02-04T13:08:25.548Z,103813.13
2023-02-04T13:10:52.260Z,103807.66
2023-02-04T13:13:20.096Z,103807.75
2023-02-04T13:15:47.592Z,103807.66
2023-02-04T13:18:16.561Z,103807.66
2023-02-04T13:20:44.022Z,103808.53
2023-02-04T13:23:10.548Z,103798.75
2023-02-04T13:25:37.037Z,103799.53
2023-02-04T13:28:03.706Z,103799.53
2023-02-04T13:30:30.357Z,103796.78
2023-02-04T13:32:56.943Z,103795.03
2023-02-04T13:35:23.575Z,103800.34
2023-02-04T13:37:50.112Z,103798.50
2023-02-04T13:40:16.790Z,103798.41
2023-02-04T13:42:43.347Z,103802.00
2023-02-04T13:45:12.705Z,103796.53
2023-02-04T13:47:39.700Z,103798.28
2023-02-04T13:50:06.990Z,103798.22
2023-02-04T13:52:34.484Z,103800.81
2023-02-04T13:55:01.277Z,103797.25
2023-02-04T13:57:28.138Z,103799.13
2023-02-04T13:59:54.709Z,103803.63
2023-02-04T14:02:23.574Z,103800.09
2023-02-04T14:04:50.318Z,103802.88
2023-02-04T14:07:17.090Z,103802.78
2023-02-04T14:09:43.647Z,103799.31
2023-02-04T14:12:10.546Z,103799.31
2023-02-04T14:14:37.071Z,103802.91
2023-02-04T14:17:04.351Z,103801.09
2023-02-04T14:19:30.917Z,103806.56
2023-02-04T14:21:58.437Z,103801.19
2023-02-04T14:24:25.411Z,103795.84
2023-02-04T14:26:52.157Z,103808.38
2023-02-04T14:29:18.727Z,103800.47
2023-02-04T14:31:45.360Z,103805.84
2023-02-04T14:34:11.940Z,103809.47
2023-02-04T14:36:38.550Z,103805.94
2023-02-04T14:39:05.180Z,103806.00
2023-02-04T14:41:31.754Z,103804.28
2023-02-04T14:43:58.299Z,103805.28
2023-02-04T14:46:24.902Z,103801.69
2023-02-04T14:48:52.164Z,103797.31
2023-02-04T14:51:19.598Z,103800.97
2023-02-04T14:53:48.751Z,103799.22
2023-02-04T14:56:15.901Z,103800.25
2023-02-04T14:58:42.737Z,103806.56
2023-02-04T15:01:09.484Z,103809.25
2023-02-04T15:03:36.140Z,103811.13
2023-02-04T15:06:02.725Z,103812.06
2023-02-04T15:08:29.543Z,103813.09
2023-02-04T15:10:56.128Z,103820.25
2023-02-04T15:13:22.734Z,103810.50
2023-02-04T15:15:49.357Z,103812.38
2023-02-04T15:18:15.894Z,103814.19
2023-02-04T15:20:42.438Z,103812.44
2023-02-04T15:23:13.011Z,103824.03
2023-02-04T15:25:40.220Z,103820.59
2023-02-04T15:28:07.059Z,103819.72
2023-02-04T15:30:34.016Z,103826.81
2023-02-04T15:33:00.733Z,103820.72
2023-02-04T15:35:27.254Z,103823.47
2023-02-04T15:37:53.782Z,103829.78
2023-02-04T15:40:20.519Z,103831.59
2023-02-04T15:42:47.435Z,103834.28
2023-02-04T15:45:13.962Z,103834.38
2023-02-04T15:47:40.479Z,103835.28
2023-02-04T15:50:09.063Z,103836.22
2023-02-04T15:52:35.592Z,103835.38
2023-02-04T15:55:02.086Z,103835.47
2023-02-04T15:57:28.611Z,103835.47
2023-02-04T15:59:55.159Z,103829.22
2023-02-04T16:02:21.698Z,103832.84
2023-02-04T16:04:48.293Z,103826.59
2023-02-04T16:07:14.932Z,103828.44
2023-02-04T16:09:41.467Z,103831.19
2023-02-04T16:12:07.968Z,103832.06
2023-02-04T16:14:34.590Z,103840.16
2023-02-04T16:17:01.827Z,103836.59
2023-02-04T16:19:29.137Z,103838.41
2023-02-04T16:21:55.776Z,103842.91
2023-02-04T16:24:22.604Z,103842.06
2023-02-04T16:26:49.098Z,103845.69
2023-02-04T16:29:16.578Z,103851.03
2023-02-04T16:31:43.092Z,103853.78
2023-02-04T16:34:09.658Z,103852.06
2023-02-04T16:36:36.123Z,103857.31
2023-02-04T16:39:02.926Z,103855.59
2023-02-04T16:41:29.621Z,103855.59
2023-02-04T16:43:56.190Z,103856.47
2023-02-04T16:46:22.865Z,103860.94
2023-02-04T16:48:49.442Z,103862.78
2023-02-04T16:51:17.820Z,103862.69
2023-02-04T16:53:44.342Z,103860.00
2023-02-04T16:56:10.849Z,103861.75
2023-02-04T16:58:38.397Z,103860.91
2023-02-04T17:01:05.091Z,103867.13
2023-02-04T17:03:31.818Z,103865.38
2023-02-04T17:05:58.303Z,103864.44
2023-02-04T17:08:24.826Z,103876.97
2023-02-04T17:11:09.804Z,103872.50
2023-02-04T17:13:36.389Z,103869.84
2023-02-04T17:16:03.479Z,103870.72
2023-02-04T17:18:31.114Z,103867.28
2023-02-04T17:20:58.251Z,103869.94
2023-02-04T17:23:25.636Z,103868.22
2023-02-04T17:25:52.724Z,103868.22
2023-02-04T17:28:19.384Z,103864.66
2023-02-04T17:30:46.362Z,103873.56
2023-02-04T17:33:12.928Z,103868.22
2023-02-04T17:35:39.459Z,103871.81
2023-02-04T17:38:06.016Z,103882.53
2023-02-04T17:40:32.567Z,103879.84
2023-02-04T17:42:59.210Z,103884.34
2023-02-04T17:45:25.847Z,103885.22
2023-02-04T17:47:52.440Z,103877.25
2023-02-04T17:50:19.064Z,103885.31
2023-02-04T17:52:45.579Z,103886.25
2023-02-04T17:55:24.558Z,103892.56
2023-02-04T17:57:51.801Z,103890.75
2023-02-04T18:00:21.381Z,103901.47
2023-02-04T18:02:50.248Z,103892.56
2023-02-04T18:05:19.597Z,103885.53
2023-02-04T18:08:15.703Z,103882.94
2023-02-04T18:10:45.523Z,103882.84
2023-02-04T18:13:12.083Z,103886.47
2023-02-04T18:15:39.054Z,103886.47
2023-02-04T18:18:21.506Z,103884.78
2023-02-04T18:20:56.284Z,103883.84
2023-02-04T18:23:22.989Z,103882.94
2023-02-04T18:25:49.774Z,103886.59
2023-02-04T18:28:19.125Z,103892.84
2023-02-04T18:30:47.253Z,103891.03
2023-02-04T18:33:14.167Z,103889.28
2023-02-04T18:35:42.922Z,103889.28
2023-02-04T18:38:34.311Z,103892.91
2023-02-04T18:41:27.604Z,103903.69
2023-02-04T18:44:04.440Z,103908.03
2023-02-04T18:46:37.162Z,103900.88
2023-02-04T18:49:27.050Z,103903.63
2023-02-04T18:51:54.982Z,103903.47
2023-02-04T18:54:37.531Z,103907.19
2023-02-04T18:57:13.513Z,103903.63
2023-02-04T18:59:41.323Z,103900.00
2023-02-04T19:02:25.003Z,103898.28
2023-02-04T19:04:55.289Z,103894.69
2023-02-04T19:07:28.001Z,103892.91
2023-02-04T19:09:56.616Z,103892.91
2023-02-04T19:12:24.169Z,103894.78
2023-02-04T19:14:51.258Z,103902.81
2023-02-04T19:17:29.380Z,103900.22
2023-02-04T19:20:08.571Z,103902.91
2023-02-04T19:22:43.183Z,103905.63
2023-02-04T19:25:30.729Z,103903.03
2023-02-04T19:28:00.201Z,103899.41
2023-02-04T19:30:26.750Z,103900.28
2023-02-04T19:32:55.781Z,103896.72
2023-02-04T19:35:24.308Z,103893.19
2023-02-04T19:38:00.596Z,103894.13
2023-02-04T19:40:31.926Z,103893.19
2023-02-04T19:43:21.039Z,103890.59
2023-02-04T19:45:50.846Z,103890.50
2023-02-04T19:48:21.738Z,103881.53
2023-02-04T19:50:52.858Z,103881.59
2023-02-04T19:53:27.995Z,103881.69
2023-02-04T19:55:55.702Z,103879.00
2023-02-04T19:58:22.216Z,103877.19
2023-02-04T20:01:15.685Z,103868.34
2023-02-04T20:03:49.630Z,103865.63
2023-02-04T20:06:22.460Z,103868.28
2023-02-04T20:08:56.370Z,103860.25
2023-02-04T20:11:34.983Z,103862.22
2023-02-04T20:14:10.424Z,103863.06
2023-02-04T20:16:47.030Z,103874.66
2023-02-04T20:19:19.432Z,103872.06
2023-02-04T20:22:02.282Z,103874.78
2023-02-04T20:24:35.040Z,103871.16
2023-02-04T20:27:19.730Z,103882.91
2023-02-04T20:29:50.028Z,103889.06
2023-02-04T20:32:20.262Z,103893.63
2023-02-04T20:34:47.163Z,103900.72
2023-02-04T20:37:26.872Z,103899.00
2023-02-04T20:39:54.160Z,103898.13
2023-02-04T20:42:20.619Z,103891.91
2023-02-04T20:44:48.068Z,103901.72
2023-02-04T20:47:21.358Z,103892.75
2023-02-04T20:50:29.065Z,103891.09
2023-02-04T20:53:28.286Z,103882.97
2023-02-04T20:56:04.002Z,103880.22
2023-02-04T20:58:38.981Z,103863.34
2023-02-04T21:01:23.241Z,103870.53
2023-02-04T21:03:51.266Z,103877.56
2023-02-04T21:06:27.801Z,103871.38
2023-02-04T21:08:57.277Z,103873.16
2023-02-04T21:11:24.934Z,103860.66
2023-02-04T21:13:53.023Z,103874.06
2023-02-04T21:16:20.369Z,103869.56
2023-02-04T21:18:47.496Z,103865.16
2023-02-04T21:21:14.909Z,103859.81
2023-02-04T21:23:41.503Z,103865.25
2023-02-04T21:26:08.175Z,103866.09
2023-02-04T21:28:34.996Z,103867.94
2023-02-04T21:31:01.786Z,103865.25
2023-02-04T21:33:28.521Z,103867.06
2023-02-04T21:35:55.416Z,103868.88
2023-02-04T21:38:21.925Z,103869.75
2023-02-04T21:40:48.467Z,103874.22
2023-02-04T21:43:14.993Z,103881.38
2023-02-04T21:45:41.545Z,103884.03
2023-02-04T21:48:08.170Z,103880.50
2023-02-04T21:50:36.252Z,103885.84
2023-02-04T21:53:02.809Z,103879.63
2023-02-04T21:55:29.653Z,103889.50
2023-02-04T21:57:56.179Z,103886.81
2023-02-04T22:00:23.752Z,103879.72
2023-02-04T22:02:54.230Z,103879.72
2023-02-04T22:05:22.223Z,103876.97
2023-02-04T22:07:49.946Z,103879.72
2023-02-04T22:10:25.635Z,103887.75
2023-02-04T22:12:52.301Z,103885.94
2023-02-04T22:15:21.101Z,103885.06
2023-02-04T22:17:48.342Z,103884.13
2023-02-04T22:20:15.712Z,103881.53
2023-02-04T22:22:43.725Z,103882.41
2023-02-04T22:25:11.110Z,103894.94
2023-02-04T22:27:37.627Z,103892.25
2023-02-04T22:30:05.848Z,103897.59
2023-02-04T22:32:32.452Z,103882.41
2023-02-04T22:34:58.993Z,103877.97
2023-02-04T22:37:25.629Z,103873.50
2023-02-04T22:39:52.164Z,103876.19
2023-02-04T22:42:18.728Z,103873.50
2023-02-04T22:44:45.214Z,103884.22
2023-02-04T22:47:12.020Z,103876.19
2023-02-04T22:49:38.624Z,103875.22
2023-02-04T22:52:05.895Z,103870.75
2023-02-04T22:54:32.999Z,103863.56
2023-02-04T22:57:00.529Z,103860.84
2023-02-04T22:59:27.889Z,103857.25
2023-02-04T23:01:55.865Z,103848.31
2023-02-04T23:04:23.091Z,103846.50
2023-02-04T23:06:50.532Z,103857.22
2023-02-04T23:09:17.135Z,103856.34
2023-02-04T23:11:43.630Z,103856.34
2023-02-04T23:14:10.426Z,103853.66
2023-02-04T23:16:37.119Z,103846.50
2023-02-04T23:19:04.095Z,103837.59
2023-02-04T23:21:31.186Z,103834.97
2023-02-04T23:23:57.702Z,103831.38
2023-02-04T23:26:24.329Z,103826.03
2023-02-04T23:28:50.900Z,103832.28
2023-02-04T23:31:17.781Z,103832.28
2023-02-04T23:33:44.307Z,103840.31
2023-02-04T23:36:11.118Z,103837.72
2023-02-04T23:38:37.691Z,103832.38
2023-02-04T23:41:04.337Z,103815.44
2023-02-04T23:43:30.883Z,103823.47
2023-02-04T23:45:57.646Z,103827.97
2023-02-04T23:48:24.466Z,103819.03
2023-02-04T23:50:51.570Z,103818.13
2023-02-04T23:53:19.567Z,103802.97
2023-02-04T23:55:46.264Z,103811.91
2023-02-04T23:58:12.821Z,103806.56
